Time;durP1;ratioP1;P1;durP2;ratioP2;P2;SDS_P1;SDS_P2;PMS_P1;PMS_P2;Temp;Humidity;BMP_temperature;BMP_pressure;BME280_temperature;BME280_humidity;BME280_pressure;Samples;Min_cycle;Max_cycle;Signal;HPM_P1;HPM_P2
2022/10/10 00:01:28;;;;;;;22.40;12.15;;;;;;;8.94;86.55;98519.46;1726739;82;20976;-77
2022/10/10 00:03:55;;;;;;;19.42;11.25;;;;;;;8.90;86.32;98514.22;1730536;82;21377;-74
2022/10/10 00:06:22;;;;;;;18.10;11.53;;;;;;;8.82;86.44;98515.22;1743248;82;21504;-75
2022/10/10 00:08:49;;;;;;;19.48;12.43;;;;;;;8.80;86.52;98517.46;1737963;82;21019;-71
2022/10/10 00:11:20;;;;;;;20.17;13.15;;;;;;;8.68;86.56;98523.31;1721900;82;20999;-71
2022/10/10 00:13:47;;;;;;;17.82;13.65;;;;;;;8.67;86.62;98520.25;1724238;82;20979;-72
2022/10/10 00:16:15;;;;;;;21.37;12.88;;;;;;;8.68;86.89;98514.53;1726828;82;21022;-72
2022/10/10 00:18:42;;;;;;;20.80;13.45;;;;;;;8.68;86.42;98513.22;1727260;82;21003;-72
2022/10/10 00:21:10;;;;;;;19.42;13.35;;;;;;;8.60;86.04;98518.60;1728377;82;21003;-72
2022/10/10 00:23:37;;;;;;;24.35;14.47;;;;;;;8.51;86.23;98520.86;1721242;83;20983;-72
2022/10/10 00:26:05;;;;;;;21.95;13.90;;;;;;;8.46;86.81;98524.01;1726723;82;21015;-71
2022/10/10 00:28:32;;;;;;;21.73;13.85;;;;;;;8.43;87.08;98513.50;1725956;82;21408;-73
2022/10/10 00:30:58;;;;;;;21.10;14.03;;;;;;;8.38;86.53;98525.42;1735171;82;21367;-73
2022/10/10 00:33:25;;;;;;;21.02;14.00;;;;;;;8.31;86.58;98523.77;1732877;82;21004;-73
2022/10/10 00:35:51;;;;;;;21.27;13.18;;;;;;;8.21;86.46;98521.66;1741055;82;21004;-73
2022/10/10 00:38:17;;;;;;;20.30;12.60;;;;;;;8.17;86.56;98523.47;1733544;82;21024;-73
2022/10/10 00:40:54;;;;;;;18.67;11.63;;;;;;;8.13;86.34;98516.91;1738950;82;21015;-73
2022/10/10 00:43:24;;;;;;;20.72;11.80;;;;;;;8.08;86.35;98520.93;1734042;82;21000;-71
2022/10/10 00:45:52;;;;;;;18.95;12.85;;;;;;;8.05;86.29;98528.88;1739012;82;21020;-74
2022/10/10 00:48:40;;;;;;;19.10;12.30;;;;;;;7.99;86.12;98532.91;1731118;82;21020;-72
2022/10/10 00:51:12;;;;;;;17.52;12.13;;;;;;;7.92;86.15;98531.66;1738759;82;21083;-72
2022/10/10 00:53:50;;;;;;;19.62;11.88;;;;;;;7.85;86.52;98530.42;1723793;82;21055;-72
2022/10/10 00:56:22;;;;;;;23.30;12.50;;;;;;;7.75;86.67;98519.95;1734875;81;21425;-73
2022/10/10 00:58:53;;;;;;;19.25;13.10;;;;;;;7.73;86.43;98523.03;1734799;82;21028;-75
2022/10/10 01:01:19;;;;;;;21.62;14.47;;;;;;;7.69;87.30;98530.56;1742987;82;20977;-76
2022/10/10 01:03:46;;;;;;;23.10;14.07;;;;;;;7.64;87.86;98526.64;1730130;82;20975;-76
2022/10/10 01:06:15;;;;;;;21.35;14.68;;;;;;;7.62;87.59;98533.70;1727428;82;20979;-77
2022/10/10 01:08:46;;;;;;;20.08;12.58;;;;;;;7.58;88.16;98535.94;1729272;82;20996;-77
2022/10/10 01:11:38;;;;;;;19.95;12.25;;;;;;;7.55;87.34;98532.45;1731733;82;20949;-77
2022/10/10 01:14:38;;;;;;;16.75;11.10;;;;;;;7.51;86.97;98531.15;1739899;82;21104;-77
2022/10/10 01:17:24;;;;;;;21.50;12.43;;;;;;;7.49;87.16;98524.14;1707754;83;20987;-76
2022/10/10 01:20:15;;;;;;;20.47;13.33;;;;;;;7.44;87.14;98518.92;1728104;82;20995;-76
2022/10/10 01:23:22;;;;;;;19.42;12.75;;;;;;;7.40;87.56;98526.42;1736290;82;20924;-76
2022/10/10 01:26:27;;;;;;;19.52;11.68;;;;;;;7.37;87.11;98532.59;1736821;82;21041;-76
2022/10/10 01:29:16;;;;;;;21.10;11.30;;;;;;;7.31;86.89;98522.53;1728699;82;21103;-76
2022/10/10 01:31:47;;;;;;;17.73;10.93;;;;;;;7.22;86.90;98521.70;1733233;82;21417;-76
2022/10/10 01:34:27;;;;;;;17.45;11.08;;;;;;;7.22;86.84;98516.44;1733908;82;20976;-76
2022/10/10 01:37:04;;;;;;;16.48;10.63;;;;;;;7.22;86.98;98519.06;1731937;81;21047;-76
2022/10/10 01:39:42;;;;;;;14.60;9.40;;;;;;;7.21;87.06;98510.73;1730074;82;20995;-77
2022/10/10 01:42:33;;;;;;;15.90;10.05;;;;;;;7.24;87.55;98517.31;1736318;82;20963;-76
2022/10/10 01:44:59;;;;;;;19.12;10.95;;;;;;;7.29;87.21;98516.38;1725800;82;20976;-76
2022/10/10 01:47:26;;;;;;;20.95;10.75;;;;;;;7.33;87.35;98515.47;1725367;82;21123;-76
2022/10/10 01:49:57;;;;;;;13.53;9.25;;;;;;;7.39;87.57;98520.69;1740748;82;21355;-76
2022/10/10 01:52:48;;;;;;;13.15;9.73;;;;;;;7.40;87.11;98521.14;1734061;82;21529;-76
2022/10/10 01:55:23;;;;;;;17.00;10.23;;;;;;;7.38;87.27;98518.52;1740761;82;21080;-76
2022/10/10 01:58:13;;;;;;;16.35;9.90;;;;;;;7.36;87.51;98516.78;1736769;82;21000;-76
2022/10/10 02:00:53;;;;;;;18.55;9.85;;;;;;;7.39;87.83;98516.73;1730220;81;20961;-76
2022/10/10 02:03:36;;;;;;;17.60;9.90;;;;;;;7.43;87.83;98509.23;1737095;82;20986;-76
2022/10/10 02:06:08;;;;;;;16.95;10.35;;;;;;;7.49;87.60;98514.48;1725442;82;21017;-76
2022/10/10 02:09:02;;;;;;;15.60;9.43;;;;;;;7.47;87.56;98511.42;1734130;82;20988;-76
2022/10/10 02:11:31;;;;;;;13.68;8.50;;;;;;;7.47;87.60;98521.51;1719499;82;21041;-76
2022/10/10 02:14:03;;;;;;;13.45;9.38;;;;;;;7.45;87.65;98521.98;1725998;82;20927;-76
2022/10/10 02:16:40;;;;;;;15.95;10.13;;;;;;;7.44;87.56;98518.92;1726261;82;21008;-76
2022/10/10 02:19:11;;;;;;;16.12;11.12;;;;;;;7.47;88.17;98521.51;1732978;82;21641;-76
2022/10/10 02:21:40;;;;;;;16.67;10.55;;;;;;;7.48;87.71;98523.71;1725234;82;21437;-76
2022/10/10 02:24:08;;;;;;;14.98;9.63;;;;;;;7.44;87.55;98520.23;1727808;83;21457;-76
2022/10/10 02:26:37;;;;;;;16.93;10.03;;;;;;;7.37;87.53;98520.73;1712323;82;21024;-76
2022/10/10 02:29:11;;;;;;;14.25;10.23;;;;;;;7.34;87.59;98525.13;1752738;82;21370;-76
2022/10/10 02:31:58;;;;;;;15.95;9.80;;;;;;;7.33;87.59;98520.75;1705441;83;21007;-76
2022/10/10 02:34:29;;;;;;;16.42;9.95;;;;;;;7.29;87.05;98524.28;1726815;83;21000;-76
2022/10/10 02:37:00;;;;;;;18.17;10.68;;;;;;;7.15;86.54;98529.67;1727861;83;21008;-76
2022/10/10 02:39:32;;;;;;;19.00;10.30;;;;;;;7.05;87.13;98527.56;1727746;83;21450;-76
2022/10/10 02:41:59;;;;;;;15.43;9.60;;;;;;;7.00;87.11;98528.89;1727545;83;21032;-76
2022/10/10 02:44:27;;;;;;;14.55;9.48;;;;;;;6.95;86.98;98530.68;1727674;83;20988;-76
2022/10/10 02:46:55;;;;;;;13.70;10.48;;;;;;;6.91;86.90;98535.10;1727824;83;21049;-76
2022/10/10 02:49:27;;;;;;;14.30;9.68;;;;;;;6.88;86.93;98540.38;1728509;82;21366;-76
2022/10/10 02:51:53;;;;;;;15.38;9.53;;;;;;;6.82;86.76;98533.38;1755797;82;20992;-76
2022/10/10 02:54:20;;;;;;;15.38;9.33;;;;;;;6.76;87.03;98530.78;1755862;82;21398;-76
2022/10/10 02:56:46;;;;;;;16.42;10.03;;;;;;;6.74;86.99;98528.16;1727652;83;21024;-76
2022/10/10 02:59:12;;;;;;;16.20;9.55;;;;;;;6.70;86.75;98533.03;1727726;83;21362;-76
2022/10/10 03:01:39;;;;;;;13.10;9.28;;;;;;;6.65;87.01;98528.66;1733792;82;21020;-76
2022/10/10 03:04:06;;;;;;;15.65;9.45;;;;;;;6.63;86.91;98531.30;1755499;82;21019;-76
2022/10/10 03:06:32;;;;;;;15.32;9.63;;;;;;;6.56;86.91;98533.08;1732499;82;21046;-76
2022/10/10 03:08:59;;;;;;;13.93;9.30;;;;;;;6.50;86.97;98533.54;1727943;83;21040;-76
2022/10/10 03:11:26;;;;;;;13.98;9.08;;;;;;;6.48;87.25;98537.52;1728897;82;21027;-76
2022/10/10 03:13:52;;;;;;;20.20;9.63;;;;;;;6.45;87.20;98542.79;1755729;82;21434;-76
2022/10/10 03:16:19;;;;;;;17.02;9.78;;;;;;;6.42;87.12;98540.16;1755656;82;20984;-77
2022/10/10 03:18:45;;;;;;;17.70;9.63;;;;;;;6.40;87.00;98548.05;1729052;81;21434;-77
2022/10/10 03:21:12;;;;;;;17.00;10.20;;;;;;;6.36;87.32;98546.34;1743611;82;21100;-77
2022/10/10 03:23:38;;;;;;;17.60;10.50;;;;;;;6.35;87.11;98544.56;1736726;82;20997;-77
2022/10/10 03:26:05;;;;;;;17.42;10.60;;;;;;;6.30;87.69;98552.49;1728605;81;21040;-77
2022/10/10 03:28:31;;;;;;;27.98;16.70;;;;;;;6.31;87.77;98545.02;1743542;81;21000;-77
2022/10/10 03:30:58;;;;;;;15.83;10.48;;;;;;;6.31;87.66;98548.12;1732841;82;21012;-77
2022/10/10 03:33:25;;;;;;;18.07;10.53;;;;;;;6.32;87.50;98552.49;1741721;82;20964;-78
2022/10/10 03:35:52;;;;;;;18.40;10.18;;;;;;;6.29;87.46;98552.49;1730610;82;21032;-78
2022/10/10 03:38:18;;;;;;;19.70;11.03;;;;;;;6.27;87.28;98555.13;1721149;83;20980;-77
2022/10/10 03:40:45;;;;;;;17.32;10.60;;;;;;;6.26;87.65;98557.75;1727866;83;20992;-77
2022/10/10 03:43:13;;;;;;;19.62;10.60;;;;;;;6.22;87.85;98554.27;1727858;83;21035;-78
2022/10/10 03:45:46;;;;;;;17.40;10.58;;;;;;;6.22;87.67;98560.84;1727699;83;21020;-77
2022/10/10 03:48:13;;;;;;;17.85;11.15;;;;;;;6.19;87.52;98560.41;1736691;82;20925;-78
2022/10/10 03:50:40;;;;;;;20.92;11.40;;;;;;;6.15;87.46;98553.41;1744546;82;20968;-77
2022/10/10 03:53:07;;;;;;;16.30;10.70;;;;;;;6.11;87.74;98558.69;1736062;82;20988;-77
2022/10/10 03:55:34;;;;;;;16.15;10.93;;;;;;;6.11;87.97;98560.00;1743235;82;21024;-77
2022/10/10 03:58:00;;;;;;;24.75;11.00;;;;;;;6.10;87.85;98560.44;1730565;82;20999;-77
2022/10/10 04:00:27;;;;;;;20.30;11.28;;;;;;;6.09;88.21;98556.06;1733445;82;21440;-77
2022/10/10 04:02:54;;;;;;;17.45;10.85;;;;;;;6.06;88.28;98560.00;1733331;82;21025;-77
2022/10/10 04:05:20;;;;;;;15.83;10.45;;;;;;;6.01;88.52;98557.36;1733567;82;21409;-77
2022/10/10 04:07:47;;;;;;;20.12;10.40;;;;;;;5.97;88.34;98553.44;1733527;81;20932;-77
2022/10/10 04:10:13;;;;;;;17.87;10.78;;;;;;;5.95;88.00;98554.29;1733700;82;20935;-77
2022/10/10 04:12:40;;;;;;;20.45;10.93;;;;;;;5.99;88.14;98559.13;1733623;81;21349;-77
2022/10/10 04:15:08;;;;;;;17.75;10.45;;;;;;;6.03;88.13;98560.88;1733514;81;20998;-77
2022/10/10 04:17:34;;;;;;;14.78;9.40;;;;;;;6.06;88.04;98557.37;1731545;82;20987;-77
2022/10/10 04:20:01;;;;;;;16.05;9.93;;;;;;;6.07;87.79;98562.63;1731528;82;21014;-77
2022/10/10 04:22:27;;;;;;;15.65;10.08;;;;;;;6.11;88.11;98555.63;1733626;81;21394;-77
2022/10/10 04:24:54;;;;;;;17.12;9.35;;;;;;;6.13;88.17;98553.86;1733649;83;20995;-77
2022/10/10 04:27:21;;;;;;;16.90;9.50;;;;;;;6.12;88.30;98553.86;1735089;82;20979;-77
2022/10/10 04:29:47;;;;;;;13.22;9.15;;;;;;;6.15;88.37;98556.03;1738283;81;20979;-77
2022/10/10 04:32:14;;;;;;;13.20;9.13;;;;;;;6.20;88.41;98556.04;1734076;82;20947;-77
2022/10/10 04:34:44;;;;;;;13.30;8.55;;;;;;;6.17;88.39;98559.56;1746940;82;21015;-77
2022/10/10 04:37:10;;;;;;;16.32;8.33;;;;;;;6.23;88.56;98565.68;1733669;83;21354;-77
2022/10/10 04:39:37;;;;;;;15.50;9.10;;;;;;;6.28;88.57;98563.48;1748038;82;21014;-76
2022/10/10 04:42:06;;;;;;;12.33;8.50;;;;;;;6.23;88.22;98567.00;1733608;83;21421;-77
2022/10/10 04:44:32;;;;;;;11.93;8.08;;;;;;;6.23;88.44;98574.89;1733780;83;21508;-76
2022/10/10 04:46:58;;;;;;;15.18;8.70;;;;;;;6.25;88.74;98571.80;1741398;82;20983;-77
2022/10/10 04:49:27;;;;;;;13.50;8.73;;;;;;;6.26;88.50;98578.39;1743355;82;20956;-77
2022/10/10 04:51:54;;;;;;;12.68;8.75;;;;;;;6.28;88.56;98579.70;1733722;83;20964;-77
2022/10/10 04:54:20;;;;;;;12.28;8.28;;;;;;;6.28;88.39;98583.66;1748041;82;21133;-77
2022/10/10 04:56:47;;;;;;;15.30;9.68;;;;;;;6.28;88.18;98587.17;1753904;82;21424;-77
2022/10/10 04:59:14;;;;;;;12.28;8.60;;;;;;;6.28;88.49;98581.02;1738289;82;20969;-77
2022/10/10 05:01:40;;;;;;;16.05;9.28;;;;;;;6.26;88.42;98582.34;1747688;82;20983;-77
2022/10/10 05:04:07;;;;;;;14.23;9.48;;;;;;;6.24;88.07;98583.22;1704601;83;21371;-78
2022/10/10 05:06:34;;;;;;;18.32;9.68;;;;;;;6.17;88.01;98584.56;1713960;83;20972;-78
2022/10/10 05:09:00;;;;;;;18.05;9.78;;;;;;;6.13;88.04;98588.08;1724519;82;21012;-78
2022/10/10 05:11:27;;;;;;;18.60;10.68;;;;;;;6.10;87.74;98585.89;1728446;82;21039;-76
2022/10/10 05:13:54;;;;;;;16.10;11.25;;;;;;;6.04;87.56;98585.45;1728206;82;21032;-77
2022/10/10 05:16:20;;;;;;;16.10;10.53;;;;;;;5.99;88.06;98589.39;1727878;82;21375;-76
2022/10/10 05:18:47;;;;;;;18.52;11.00;;;;;;;5.93;88.03;98585.43;1724572;82;20981;-76
2022/10/10 05:21:14;;;;;;;18.77;12.00;;;;;;;5.91;88.10;98589.83;1724769;82;20980;-77
2022/10/10 05:23:41;;;;;;;19.95;12.40;;;;;;;5.85;88.31;98588.53;1730424;82;21012;-76
2022/10/10 05:26:09;;;;;;;18.65;11.80;;;;;;;5.76;88.40;98589.39;1728044;83;21000;-76
2022/10/10 05:28:35;;;;;;;17.62;11.83;;;;;;;5.70;87.98;98593.34;1744845;82;21004;-77
2022/10/10 05:31:04;;;;;;;21.20;11.97;;;;;;;5.67;87.81;98592.48;1716199;82;20968;-77
2022/10/10 05:33:33;;;;;;;20.70;11.10;;;;;;;5.67;88.28;98593.80;1755735;82;21019;-77
2022/10/10 05:36:07;;;;;;;21.82;12.05;;;;;;;5.66;88.38;98591.16;1731815;82;20964;-77
2022/10/10 05:38:34;;;;;;;19.85;13.00;;;;;;;5.67;88.59;98599.48;1727909;83;21128;-77
2022/10/10 05:41:00;;;;;;;18.05;10.98;;;;;;;5.67;88.40;98598.16;1728041;83;21011;-77
2022/10/10 05:43:29;;;;;;;22.58;12.10;;;;;;;5.71;88.79;98604.30;1727992;83;21000;-77
2022/10/10 05:45:56;;;;;;;37.10;16.70;;;;;;;5.72;88.50;98608.25;1747065;82;21122;-77
2022/10/10 05:48:23;;;;;;;26.85;13.55;;;;;;;5.73;88.65;98606.50;1726180;83;20984;-77
2022/10/10 05:50:54;;;;;;;26.93;14.60;;;;;;;5.76;88.78;98603.85;1728083;83;20968;-77
2022/10/10 05:53:22;;;;;;;29.98;15.20;;;;;;;5.80;88.71;98605.61;1747560;82;21091;-77
2022/10/10 05:55:49;;;;;;;20.32;13.72;;;;;;;5.84;88.78;98603.42;1727732;83;20932;-78
2022/10/10 05:58:15;;;;;;;21.52;13.22;;;;;;;5.87;88.88;98606.06;1727761;82;21019;-77
2022/10/10 06:00:44;;;;;;;39.25;20.97;;;;;;;5.90;89.87;98605.19;1727265;82;21359;-75
2022/10/10 06:03:15;;;;;;;24.50;13.43;;;;;;;5.90;89.00;98609.13;1699790;83;21426;-75
2022/10/10 06:05:43;;;;;;;22.50;14.60;;;;;;;5.96;89.35;98614.37;1674655;84;21036;-75
2022/10/10 06:08:10;;;;;;;24.60;13.05;;;;;;;6.00;89.54;98607.34;1713797;83;21025;-74
2022/10/10 06:10:41;;;;;;;21.48;13.25;;;;;;;6.05;89.54;98614.41;1713021;83;21485;-75
2022/10/10 06:13:09;;;;;;;19.05;12.90;;;;;;;6.10;89.23;98610.89;1710300;83;20945;-75
2022/10/10 06:15:35;;;;;;;18.23;12.45;;;;;;;6.15;89.55;98609.13;1711292;83;20988;-75
2022/10/10 06:18:03;;;;;;;19.20;12.70;;;;;;;6.20;89.18;98599.01;1702613;83;20996;-75
2022/10/10 06:20:36;;;;;;;20.43;13.03;;;;;;;6.27;89.40;98605.59;1709186;83;21014;-75
2022/10/10 06:23:04;;;;;;;21.00;13.38;;;;;;;6.34;89.13;98602.95;1707098;83;21031;-75
2022/10/10 06:25:33;;;;;;;29.00;14.40;;;;;;;6.46;89.07;98614.31;1703551;83;20987;-75
2022/10/10 06:28:00;;;;;;;22.70;13.40;;;;;;;6.55;89.21;98606.39;1741148;82;21368;-75
2022/10/10 06:30:28;;;;;;;22.05;12.90;;;;;;;6.68;89.52;98608.53;1742270;82;21389;-75
2022/10/10 06:32:56;;;;;;;23.12;13.28;;;;;;;6.86;89.20;98614.62;1726575;82;20982;-75
2022/10/10 06:35:34;;;;;;;24.80;12.95;;;;;;;7.04;89.31;98615.39;1726674;82;20997;-75
2022/10/10 06:37:58;;;;;;;23.00;13.72;;;;;;;7.24;89.34;98617.93;1731616;82;20952;-75
2022/10/10 06:40:25;;;;;;;22.40;12.55;;;;;;;7.45;89.24;98610.76;1724590;82;21075;-75
2022/10/10 06:42:51;;;;;;;23.00;12.10;;;;;;;7.66;89.21;98617.22;1714842;83;21433;-75
2022/10/10 06:45:18;;;;;;;20.77;11.73;;;;;;;7.86;89.21;98610.01;1700564;83;20957;-75
2022/10/10 06:47:44;;;;;;;18.95;11.45;;;;;;;8.04;88.96;98611.17;1725793;82;21012;-75
2022/10/10 06:50:11;;;;;;;25.68;12.47;;;;;;;8.24;88.76;98610.53;1726021;82;20962;-75
2022/10/10 06:52:40;;;;;;;22.93;11.85;;;;;;;8.45;88.67;98612.97;1741668;82;20971;-76
2022/10/10 06:55:10;;;;;;;18.92;12.03;;;;;;;8.65;88.44;98603.08;1740410;82;21002;-76
2022/10/10 06:57:36;;;;;;;21.60;12.03;;;;;;;8.84;88.37;98598.00;1736269;82;21027;-76
2022/10/10 07:00:07;;;;;;;19.90;11.90;;;;;;;9.05;87.95;98603.89;1725963;81;21023;-75
2022/10/10 07:02:33;;;;;;;21.90;12.50;;;;;;;9.24;87.93;98600.55;1732511;81;21026;-76
2022/10/10 07:05:02;;;;;;;20.95;13.62;;;;;;;9.41;87.57;98598.09;1740438;81;21024;-77
2022/10/10 07:07:28;;;;;;;18.00;12.95;;;;;;;9.54;87.28;98600.57;1736319;81;20988;-77
2022/10/10 07:09:55;;;;;;;22.02;14.43;;;;;;;9.74;87.55;98604.20;1736696;82;21023;-77
2022/10/10 07:12:23;;;;;;;20.43;14.18;;;;;;;9.89;86.85;98603.09;1736224;82;21004;-76
2022/10/10 07:14:50;;;;;;;28.07;17.27;;;;;;;10.03;86.68;98607.70;1734679;82;20961;-77
2022/10/10 07:17:16;;;;;;;26.68;17.10;;;;;;;10.19;86.75;98604.77;1738261;82;20964;-77
2022/10/10 07:19:43;;;;;;;30.08;14.90;;;;;;;10.32;86.08;98602.77;1728996;82;21027;-74
2022/10/10 07:22:12;;;;;;;23.20;12.33;;;;;;;10.43;85.88;98598.16;1739844;82;20968;-75
2022/10/10 07:24:39;;;;;;;21.85;13.40;;;;;;;10.57;85.86;98594.38;1733529;82;21353;-75
2022/10/10 07:27:06;;;;;;;25.52;13.48;;;;;;;10.73;86.05;98599.36;1733762;82;21007;-75
2022/10/10 07:29:34;;;;;;;21.87;13.18;;;;;;;10.86;85.96;98598.20;1733498;81;21491;-74
2022/10/10 07:32:07;;;;;;;22.27;12.95;;;;;;;10.99;85.79;98595.27;1733425;81;20999;-75
2022/10/10 07:34:36;;;;;;;17.95;11.55;;;;;;;11.08;85.41;98598.62;1736974;82;21002;-72
2022/10/10 07:37:10;;;;;;;17.70;11.20;;;;;;;11.18;84.87;98594.44;1730285;82;21472;-76
2022/10/10 07:39:38;;;;;;;23.85;12.35;;;;;;;11.32;84.49;98594.11;1734602;81;21349;-75
2022/10/10 07:42:07;;;;;;;20.90;13.00;;;;;;;11.43;84.04;98597.41;1738049;81;20959;-74
2022/10/10 07:44:33;;;;;;;24.52;13.38;;;;;;;11.57;84.06;98599.73;1736698;81;21028;-75
2022/10/10 07:47:00;;;;;;;33.55;14.23;;;;;;;11.66;82.76;98598.63;1738748;82;21074;-75
2022/10/10 07:49:26;;;;;;;26.73;14.28;;;;;;;11.71;82.13;98591.89;1741810;82;21027;-75
2022/10/10 07:51:53;;;;;;;30.95;17.25;;;;;;;11.75;81.90;98596.19;1745783;82;20995;-75
2022/10/10 07:54:19;;;;;;;29.60;17.30;;;;;;;11.82;81.90;98600.90;1753155;82;21046;-75
2022/10/10 07:56:46;;;;;;;28.35;16.95;;;;;;;11.91;82.15;98596.69;1711631;82;21010;-76
2022/10/10 07:59:12;;;;;;;26.93;14.63;;;;;;;11.97;81.46;98596.55;1737765;82;21024;-76
2022/10/10 08:01:38;;;;;;;21.95;12.58;;;;;;;11.98;80.99;98596.96;1747539;82;20992;-76
2022/10/10 08:04:05;;;;;;;19.85;12.33;;;;;;;12.00;81.40;98602.24;1727993;83;21004;-76
2022/10/10 08:06:31;;;;;;;20.68;11.90;;;;;;;12.04;80.99;98603.88;1727552;83;21480;-76
2022/10/10 08:08:58;;;;;;;17.57;12.10;;;;;;;12.11;81.14;98598.87;1725305;82;21052;-76
2022/10/10 08:11:24;;;;;;;17.92;12.00;;;;;;;12.20;80.13;98600.89;1726301;82;21388;-76
2022/10/10 08:13:51;;;;;;;19.35;10.72;;;;;;;12.22;79.11;98599.05;1727672;83;20987;-76
2022/10/10 08:16:18;;;;;;;17.05;10.93;;;;;;;12.23;79.46;98602.11;1727910;83;21011;-76
2022/10/10 08:18:45;;;;;;;16.55;11.03;;;;;;;12.23;79.29;98600.78;1727874;83;21035;-76
2022/10/10 08:21:14;;;;;;;19.12;11.12;;;;;;;12.25;79.27;98601.16;1727878;83;21021;-76
2022/10/10 08:23:41;;;;;;;20.20;11.95;;;;;;;12.30;78.76;98599.72;1732626;82;20984;-76
2022/10/10 08:26:11;;;;;;;28.23;11.75;;;;;;;12.34;79.22;98595.19;1742135;82;20996;-76
2022/10/10 08:28:38;;;;;;;17.30;11.50;;;;;;;12.33;79.05;98602.75;1727766;83;21000;-77
2022/10/10 08:31:14;;;;;;;21.50;11.83;;;;;;;12.37;79.41;98595.97;1727955;83;20989;-76
2022/10/10 08:33:43;;;;;;;22.27;12.50;;;;;;;12.40;79.23;98605.64;1747454;82;21032;-76
2022/10/10 08:36:14;;;;;;;20.30;12.55;;;;;;;12.45;79.18;98601.55;1727994;83;20952;-77
2022/10/10 08:38:41;;;;;;;24.05;13.62;;;;;;;12.48;78.94;98602.77;1728107;82;22099;-77
2022/10/10 08:41:19;;;;;;;25.75;16.32;;;;;;;12.48;78.83;98602.77;1755669;82;21027;-76
2022/10/10 08:44:03;;;;;;;22.15;13.15;;;;;;;12.54;79.09;98602.16;1754383;82;21024;-76
2022/10/10 08:46:47;;;;;;;22.52;12.37;;;;;;;12.64;78.89;98601.90;1739767;82;20988;-76
2022/10/10 08:49:25;;;;;;;19.73;13.00;;;;;;;12.68;79.01;98603.56;1728081;83;20952;-76
2022/10/10 08:52:00;;;;;;;20.12;12.68;;;;;;;12.80;78.64;98603.67;1695523;85;21454;-76
2022/10/10 08:54:32;;;;;;;19.42;12.50;;;;;;;12.87;78.32;98599.90;1693020;84;21091;-76
2022/10/10 08:57:03;;;;;;;22.55;12.37;;;;;;;12.93;78.50;98591.76;1708339;83;21053;-76
2022/10/10 08:59:37;;;;;;;19.20;12.60;;;;;;;12.98;78.04;98594.72;1709512;83;20988;-76
2022/10/10 09:02:39;;;;;;;24.98;13.53;;;;;;;13.00;77.96;98592.90;1719740;83;21422;-76
2022/10/10 09:05:11;;;;;;;19.45;14.35;;;;;;;12.97;77.52;98591.65;1695002;84;21430;-77
2022/10/10 09:08:08;;;;;;;22.35;13.65;;;;;;;12.98;77.77;98584.95;1692312;83;21041;-76
2022/10/10 09:10:46;;;;;;;23.50;14.05;;;;;;;13.07;77.68;98586.02;1755873;82;20976;-76
2022/10/10 09:13:27;;;;;;;20.02;13.35;;;;;;;13.15;77.72;98592.88;1736102;82;21008;-76
2022/10/10 09:15:59;;;;;;;21.73;13.38;;;;;;;13.28;77.79;98583.60;1755588;82;21000;-76
2022/10/10 09:18:48;;;;;;;20.55;11.78;;;;;;;13.41;77.36;98587.23;1705069;83;21066;-76
2022/10/10 09:21:23;;;;;;;18.85;11.73;;;;;;;13.56;77.35;98590.76;1727974;83;21044;-76
2022/10/10 09:24:13;;;;;;;18.48;11.83;;;;;;;13.76;77.53;98588.35;1726484;83;21019;-76
2022/10/10 09:26:46;;;;;;;24.35;13.00;;;;;;;13.90;76.34;98581.25;1747297;82;21409;-76
2022/10/10 09:29:48;;;;;;;19.73;12.43;;;;;;;14.04;76.25;98584.77;1728033;83;20988;-76
2022/10/10 09:32:29;;;;;;;20.17;12.58;;;;;;;14.07;76.49;98581.53;1728186;83;20965;-76
2022/10/10 09:35:22;;;;;;;17.98;11.60;;;;;;;14.20;76.74;98579.78;1747830;82;20999;-75
2022/10/10 09:37:58;;;;;;;16.75;11.78;;;;;;;14.28;75.89;98580.84;1725217;83;20992;-75
2022/10/10 09:40:38;;;;;;;20.48;13.62;;;;;;;14.36;76.21;98575.64;1709855;81;20984;-75
2022/10/10 09:43:17;;;;;;;21.10;13.15;;;;;;;14.38;75.37;98575.11;1738700;82;21024;-75
2022/10/10 09:45:57;;;;;;;20.62;12.18;;;;;;;14.41;74.86;98576.80;1733518;81;20980;-75
2022/10/10 09:48:31;;;;;;;19.92;11.25;;;;;;;14.44;75.48;98569.14;1728183;83;21433;-75
2022/10/10 09:51:01;;;;;;;22.67;12.35;;;;;;;14.47;75.16;98571.27;1732263;82;20956;-75
2022/10/10 09:53:28;;;;;;;19.50;12.85;;;;;;;14.52;74.59;98567.96;1741025;82;21454;-75
2022/10/10 09:55:55;;;;;;;17.35;12.55;;;;;;;14.55;74.43;98566.09;1729716;82;21024;-75
2022/10/10 09:58:44;;;;;;;21.12;12.65;;;;;;;14.52;73.63;98566.63;1744704;81;21011;-75
2022/10/10 10:01:30;;;;;;;23.73;12.33;;;;;;;14.60;73.55;98563.67;1727961;83;21043;-76
2022/10/10 10:04:14;;;;;;;18.80;13.28;;;;;;;14.67;73.69;98563.44;1727589;83;21501;-76
2022/10/10 10:06:49;;;;;;;27.05;14.93;;;;;;;14.82;73.51;98557.55;1728076;83;20981;-75
2022/10/10 10:09:21;;;;;;;22.95;13.83;;;;;;;14.92;72.84;98552.75;1726778;83;21016;-77
2022/10/10 10:11:55;;;;;;;22.55;13.68;;;;;;;15.10;72.60;98548.49;1727908;83;21446;-77
2022/10/10 10:14:29;;;;;;;23.27;14.15;;;;;;;15.23;72.64;98548.88;1728253;83;21035;-75
2022/10/10 10:17:07;;;;;;;;;;;;;;;15.26;71.66;98544.75;1740153;82;21371;-76
2022/10/10 10:19:39;;;;;;;20.97;13.38;;;;;;;15.28;72.45;98538.02;1735421;82;20326;-76
2022/10/10 10:22:26;;;;;;;23.30;14.18;;;;;;;15.24;71.88;98527.91;1728096;83;21752;-76
2022/10/10 10:24:54;;;;;;;19.60;13.13;;;;;;;15.24;72.38;98525.72;1744445;82;21413;-76
2022/10/10 10:27:24;;;;;;;19.57;12.47;;;;;;;15.66;71.79;98527.55;1728122;83;21000;-75
2022/10/10 10:29:54;;;;;;;17.75;12.80;;;;;;;16.48;71.36;98515.14;1729588;82;20998;-75
2022/10/10 10:32:48;;;;;;;16.17;11.48;;;;;;;17.41;69.10;98511.27;1740037;81;20971;-75
2022/10/10 10:35:32;;;;;;;24.23;13.18;;;;;;;18.31;66.07;98507.20;1724568;82;20993;-75
2022/10/10 10:38:24;;;;;;;16.85;12.37;;;;;;;19.36;65.21;98505.58;1738670;81;20960;-75
2022/10/10 10:41:02;;;;;;;16.57;12.15;;;;;;;20.31;64.21;98492.80;1725933;83;21011;-75
2022/10/10 10:43:34;;;;;;;17.95;11.53;;;;;;;21.02;58.54;98482.61;1710600;83;21040;-75
2022/10/10 10:46:21;;;;;;;18.37;13.70;;;;;;;21.68;56.29;98476.50;1731156;82;21584;-75
2022/10/10 10:49:11;;;;;;;21.15;12.37;;;;;;;22.23;55.91;98476.84;1737552;82;20968;-75
2022/10/10 10:51:52;;;;;;;21.45;14.50;;;;;;;22.78;53.38;98469.86;1721631;82;21044;-75
2022/10/10 10:54:33;;;;;;;17.27;13.22;;;;;;;23.49;53.12;98466.49;1730879;82;20991;-76
2022/10/10 10:57:26;;;;;;;16.40;12.35;;;;;;;23.89;51.62;98468.48;1741015;82;21004;-76
2022/10/10 11:00:17;;;;;;;15.75;11.90;;;;;;;24.29;46.27;98459.97;1730533;81;21003;-76
2022/10/10 11:03:01;;;;;;;15.28;12.18;;;;;;;24.59;47.55;98449.53;1749910;82;21377;-76
2022/10/10 11:05:42;;;;;;;19.87;12.95;;;;;;;24.88;47.32;98443.62;1754468;82;21429;-76
2022/10/10 11:08:14;;;;;;;20.75;12.10;;;;;;;25.14;46.17;98433.81;1735095;82;20975;-76
2022/10/10 11:11:02;;;;;;;20.52;12.13;;;;;;;25.65;45.92;98430.06;1733223;83;21063;-76
2022/10/10 11:14:26;;;;;;;16.05;12.28;;;;;;;26.06;45.71;98430.20;1726612;83;21365;-76
2022/10/10 11:17:01;;;;;;;18.05;11.55;;;;;;;26.39;44.77;98419.24;1730737;83;20975;-76
2022/10/10 11:19:55;;;;;;;13.85;10.63;;;;;;;26.55;43.66;98413.30;1732263;83;20996;-76
2022/10/10 11:22:20;;;;;;;17.62;11.78;;;;;;;26.70;43.00;98408.36;1736197;82;20990;-76
2022/10/10 11:25:07;;;;;;;22.22;12.75;;;;;;;27.01;42.82;98405.59;1734630;82;20983;-76
2022/10/10 11:27:47;;;;;;;16.40;11.78;;;;;;;27.05;42.30;98407.03;1704876;83;20951;-76
2022/10/10 11:30:19;;;;;;;15.28;11.00;;;;;;;26.07;42.35;98402.07;1733673;83;20998;-75
2022/10/10 11:33:24;;;;;;;13.65;10.70;;;;;;;25.07;43.70;98400.08;1744717;82;21026;-76
2022/10/10 11:36:05;;;;;;;14.05;9.85;;;;;;;24.27;44.18;98401.02;1745214;82;20968;-76
2022/10/10 11:38:48;;;;;;;13.18;10.40;;;;;;;23.70;45.92;98406.30;1735376;82;21030;-76
2022/10/10 11:41:26;;;;;;;15.25;10.35;;;;;;;23.45;47.14;98400.08;1754289;82;20976;-76
2022/10/10 11:44:31;;;;;;;12.78;9.95;;;;;;;23.07;47.65;98398.80;1713099;82;21052;-75
2022/10/10 11:47:12;;;;;;;10.60;9.18;;;;;;;22.84;48.51;98389.72;1745870;82;21031;-75
2022/10/10 11:49:52;;;;;;;11.97;9.18;;;;;;;22.68;48.30;98385.93;1747048;82;20987;-74